Time;durP1;ratioP1;P1;durP2;ratioP2;P2;SDS_P1;SDS_P2;PMS_P1;PMS_P2;Temp;Humidity;BMP_temperature;BMP_pressure;BME280_temperature;BME280_humidity;BME280_pressure;Samples;Min_cycle;Max_cycle;Signal;HPM_P1;HPM_P2
2021/03/06 00:02:01;;;;;;;51.95;26.45;;;;;;;-2.71;74.87;99870.53;2217333;79;21155;-81
2021/03/06 00:05:02;;;;;;;46.90;24.35;;;;;;;-2.75;75.03;99863.41;2218593;79;21151;-80
2021/03/06 00:08:04;;;;;;;44.18;24.85;;;;;;;-2.74;75.28;99871.92;2216204;79;21277;-80
2021/03/06 00:11:06;;;;;;;54.00;23.83;;;;;;;-2.72;75.46;99868.42;2218382;79;21183;-80
2021/03/06 00:14:08;;;;;;;55.60;26.82;;;;;;;-2.74;75.28;99875.77;2211331;79;21346;-80
2021/03/06 00:17:09;;;;;;;36.68;21.95;;;;;;;-2.82;75.17;99881.72;2215301;79;21317;-80
2021/03/06 00:20:11;;;;;;;71.97;33.18;;;;;;;-2.84;75.36;99875.80;2208744;79;21301;-79
2021/03/06 00:23:13;;;;;;;277.57;102.58;;;;;;;-2.89;75.48;99871.72;2212849;79;21313;-78
2021/03/06 00:26:14;;;;;;;85.55;36.03;;;;;;;-2.93;75.41;99874.01;2215497;79;21297;-79
2021/03/06 00:29:19;;;;;;;82.88;34.92;;;;;;;-2.92;75.56;99879.55;2209511;79;21293;-79
2021/03/06 00:32:20;;;;;;;52.70;21.68;;;;;;;-2.92;75.48;99870.58;2208336;80;21138;-79
2021/03/06 00:35:22;;;;;;;44.23;19.55;;;;;;;-2.92;75.63;99865.91;2209962;80;21567;-78
2021/03/06 00:38:23;;;;;;;39.55;19.40;;;;;;;-2.96;75.73;99869.03;2208932;79;21317;-80
2021/03/06 00:41:25;;;;;;;35.15;20.00;;;;;;;-2.99;75.92;99876.86;2211045;80;21309;-79
2021/03/06 00:44:27;;;;;;;34.73;16.82;;;;;;;-2.97;76.06;99881.47;2209704;80;21581;-79
2021/03/06 00:47:28;;;;;;;38.00;19.75;;;;;;;-3.06;76.15;99875.90;2207577;80;21155;-79
2021/03/06 00:50:30;;;;;;;39.10;18.12;;;;;;;-3.10;76.28;99873.93;2211554;80;21607;-79
2021/03/06 00:53:32;;;;;;;41.48;21.17;;;;;;;-3.06;76.37;99867.77;2213279;80;21223;-80
2021/03/06 00:56:34;;;;;;;44.15;20.62;;;;;;;-3.06;76.58;99867.77;2211865;79;21159;-81
2021/03/06 00:59:36;;;;;;;34.58;19.62;;;;;;;-3.03;76.46;99860.38;2215116;80;21199;-77
2021/03/06 01:02:37;;;;;;;36.70;18.87;;;;;;;-3.05;76.47;99866.03;2214399;80;21325;-76
2021/03/06 01:05:39;;;;;;;27.40;14.65;;;;;;;-3.05;76.57;99870.70;2209674;80;21320;-77
2021/03/06 01:08:41;;;;;;;32.50;19.45;;;;;;;-3.03;76.82;99865.06;2202547;76;21326;-83
2021/03/06 01:11:43;;;;;;;38.38;19.25;;;;;;;-3.04;76.78;99868.97;2296693;76;21741;-83
2021/03/06 01:14:45;;;;;;;27.05;15.83;;;;;;;-3.10;76.83;99862.40;2312417;77;21308;-83
2021/03/06 01:17:46;;;;;;;29.60;15.15;;;;;;;-3.13;76.88;99859.95;2296359;76;21305;-83
2021/03/06 01:20:48;;;;;;;26.85;15.40;;;;;;;-3.19;77.34;99865.35;2313982;75;21863;-84
2021/03/06 01:23:49;;;;;;;34.10;17.60;;;;;;;-3.23;77.32;99870.20;2297434;75;21155;-83
2021/03/06 01:26:51;;;;;;;29.65;16.52;;;;;;;-3.28;77.39;99867.02;2289793;77;21265;-84
2021/03/06 01:29:53;;;;;;;34.83;18.02;;;;;;;-3.28;77.59;99872.98;2287662;77;21269;-84
2021/03/06 01:32:55;;;;;;;30.20;17.37;;;;;;;-3.28;77.48;99875.98;2288348;77;21571;-83
2021/03/06 01:35:57;;;;;;;29.02;15.83;;;;;;;-3.28;77.36;99882.39;2298862;77;21332;-84
2021/03/06 01:38:58;;;;;;;31.80;16.97;;;;;;;-3.30;77.96;99882.88;2282485;77;21302;-84
2021/03/06 01:42:00;;;;;;;26.23;15.50;;;;;;;-3.36;77.47;99878.03;2291853;77;21349;-84
2021/03/06 01:45:01;;;;;;;28.55;15.63;;;;;;;-3.39;77.79;99876.86;2287608;77;21305;-82
2021/03/06 01:48:03;;;;;;;27.80;17.15;;;;;;;-3.46;77.56;99883.53;2310993;77;21677;-82
2021/03/06 01:51:05;;;;;;;33.23;16.67;;;;;;;-3.47;77.90;99869.52;2293692;76;21751;-83
2021/03/06 01:54:07;;;;;;;29.90;16.20;;;;;;;-3.52;77.63;99878.66;2305979;76;21368;-84
2021/03/06 01:57:08;;;;;;;22.62;13.08;;;;;;;-3.51;77.68;99873.08;2299148;76;21288;-84
2021/03/06 02:00:10;;;;;;;28.47;17.50;;;;;;;-3.48;78.32;99881.91;2320400;76;21308;-83
2021/03/06 02:03:12;;;;;;;34.63;17.17;;;;;;;-3.47;77.75;99878.48;2307433;76;21195;-84
2021/03/06 02:06:13;;;;;;;29.02;16.55;;;;;;;-3.48;77.90;99884.02;2317276;77;21696;-84
2021/03/06 02:09:15;;;;;;;23.38;15.95;;;;;;;-3.46;77.85;99886.09;2295559;76;21274;-84
2021/03/06 02:12:16;;;;;;;35.98;19.55;;;;;;;-3.46;77.86;99888.66;2296710;76;21324;-85
2021/03/06 02:15:18;;;;;;;26.48;15.70;;;;;;;-3.51;77.75;99885.89;2293272;76;21611;-85
2021/03/06 02:18:19;;;;;;;28.50;16.20;;;;;;;-3.49;77.78;99893.05;2306722;76;21756;-84
2021/03/06 02:21:21;;;;;;;31.97;17.65;;;;;;;-3.51;77.97;99888.00;2306133;76;21148;-84
2021/03/06 02:24:22;;;;;;;27.35;15.60;;;;;;;-3.50;78.04;99890.94;2289725;76;21212;-84
2021/03/06 02:27:24;;;;;;;32.65;16.87;;;;;;;-3.46;78.09;99891.22;2302543;76;21182;-83
2021/03/06 02:30:26;;;;;;;29.18;16.15;;;;;;;-3.40;78.03;99898.25;2308810;76;21328;-84
2021/03/06 02:33:28;;;;;;;33.75;18.30;;;;;;;-3.33;78.26;99904.34;2308605;76;21270;-84
2021/03/06 02:36:29;;;;;;;29.40;15.30;;;;;;;-3.27;78.08;99901.98;2179008;80;21282;-84
2021/03/06 02:39:32;;;;;;;27.52;16.15;;;;;;;-3.26;78.13;99904.48;2249476;79;21150;-84
2021/03/06 02:42:34;;;;;;;27.82;16.02;;;;;;;-3.26;78.07;99903.64;2297262;76;21130;-85
2021/03/06 02:45:36;;;;;;;29.35;15.32;;;;;;;-3.30;78.11;99902.92;2296411;76;21296;-85
2021/03/06 02:48:37;;;;;;;33.30;16.93;;;;;;;-3.29;78.10;99905.03;2320281;76;21713;-85
2021/03/06 02:51:39;;;;;;;27.02;14.80;;;;;;;-3.34;78.09;99906.52;2311392;76;21784;-84
2021/03/06 02:54:41;;;;;;;35.55;20.08;;;;;;;-3.33;78.25;99905.62;2302859;76;21179;-84
2021/03/06 02:57:42;;;;;;;58.63;24.63;;;;;;;-3.34;78.10;99908.25;2299632;76;21341;-84
2021/03/06 03:00:45;;;;;;;41.58;21.30;;;;;;;-3.37;78.09;99913.06;2303009;76;21181;-84
2021/03/06 03:03:47;;;;;;;42.43;18.40;;;;;;;-3.40;78.19;99911.88;2308828;76;21355;-84
2021/03/06 03:06:49;;;;;;;35.80;18.42;;;;;;;-3.44;78.51;99918.87;2320290;76;21288;-84
2021/03/06 03:09:50;;;;;;;37.20;17.70;;;;;;;-3.43;78.21;99929.95;2310399;76;21752;-84
2021/03/06 03:12:52;;;;;;;32.58;18.42;;;;;;;-3.50;78.22;99933.19;2286131;77;21746;-84
2021/03/06 03:15:54;;;;;;;26.42;14.15;;;;;;;-3.53;78.04;99925.64;2309067;77;21281;-84
2021/03/06 03:18:55;;;;;;;31.57;17.20;;;;;;;-3.60;78.17;99932.34;2288794;77;21108;-83
2021/03/06 03:21:57;;;;;;;32.55;17.48;;;;;;;-3.65;78.44;99932.54;2286601;77;21290;-84
2021/03/06 03:24:58;;;;;;;37.80;17.57;;;;;;;-3.68;78.32;99936.93;2273540;77;21159;-84
2021/03/06 03:28:00;;;;;;;39.98;19.25;;;;;;;-3.76;78.30;99948.30;2287675;76;21293;-84
2021/03/06 03:31:02;;;;;;;31.48;17.55;;;;;;;-3.82;78.21;99942.16;2306652;77;21202;-84
2021/03/06 03:34:03;;;;;;;35.78;16.90;;;;;;;-3.84;78.47;99950.34;2263052;77;21289;-84
2021/03/06 03:37:05;;;;;;;40.70;18.55;;;;;;;-3.81;78.53;99951.94;2273407;77;21309;-83
2021/03/06 03:40:07;;;;;;;34.10;16.85;;;;;;;-3.80;78.61;99945.48;2300747;76;21167;-84
2021/03/06 03:43:08;;;;;;;50.67;23.30;;;;;;;-3.80;78.65;99943.37;2293708;76;21333;-83
2021/03/06 03:46:10;;;;;;;37.35;18.95;;;;;;;-3.88;78.50;99949.23;2285964;77;21828;-85
2021/03/06 03:49:11;;;;;;;32.90;17.92;;;;;;;-3.90;78.55;99958.69;2268214;77;21162;-84
2021/03/06 03:52:13;;;;;;;32.80;16.97;;;;;;;-3.86;78.65;99961.06;2294918;76;21278;-84
2021/03/06 03:55:15;;;;;;;36.63;17.85;;;;;;;-3.80;78.64;99960.84;2287035;77;21297;-85
2021/03/06 03:58:16;;;;;;;27.77;16.37;;;;;;;-3.81;78.50;99959.17;2286458;76;21312;-84
2021/03/06 04:01:18;;;;;;;25.68;16.15;;;;;;;-3.82;78.65;99954.13;2272982;76;21629;-85
2021/03/06 04:04:20;;;;;;;28.30;17.90;;;;;;;-3.82;78.52;99957.52;2300432;76;21317;-83
2021/03/06 04:07:21;;;;;;;31.17;18.10;;;;;;;-3.81;78.63;99958.34;2307528;76;21356;-84
2021/03/06 04:10:23;;;;;;;36.60;18.90;;;;;;;-3.81;78.60;99966.02;2288555;77;21580;-85
2021/03/06 04:13:25;;;;;;;36.10;19.62;;;;;;;-3.84;78.62;99973.38;2286308;76;21187;-85
2021/03/06 04:16:26;;;;;;;36.55;19.17;;;;;;;-3.82;78.62;99977.98;2295308;77;21301;-86
2021/03/06 04:19:28;;;;;;;31.93;16.57;;;;;;;-3.83;78.49;99975.49;2279838;77;21115;-83
2021/03/06 04:22:33;;;;;;;34.00;18.20;;;;;;;-3.84;78.44;99973.38;2294315;77;21269;-83
2021/03/06 04:25:34;;;;;;;30.75;17.25;;;;;;;-3.90;78.32;99980.45;2310247;77;21288;-83
2021/03/06 04:28:36;;;;;;;34.95;17.82;;;;;;;-3.91;78.38;99985.18;2305460;76;21186;-84
2021/03/06 04:31:37;;;;;;;57.25;29.35;;;;;;;-3.88;78.43;99978.66;2293012;76;21360;-84
2021/03/06 04:34:39;;;;;;;59.93;23.73;;;;;;;-3.92;78.45;99980.95;2263318;77;21304;-84
2021/03/06 04:37:40;;;;;;;39.25;19.80;;;;;;;-3.95;78.39;99993.84;2306408;77;21306;-85
2021/03/06 04:40:42;;;;;;;37.38;18.42;;;;;;;-4.03;78.38;99992.39;2270099;77;21167;-84
2021/03/06 04:43:44;;;;;;;36.38;17.50;;;;;;;-4.03;78.41;99995.41;2295713;77;21285;-84
2021/03/06 04:46:45;;;;;;;37.80;19.45;;;;;;;-4.08;78.51;99996.87;2265001;77;21143;-83
2021/03/06 04:49:47;;;;;;;30.95;17.32;;;;;;;-4.09;78.54;100002.05;2283685;77;21189;-83
2021/03/06 04:52:48;;;;;;;34.40;19.40;;;;;;;-4.11;78.63;100000.00;2293663;77;21312;-84
2021/03/06 04:55:50;;;;;;;41.55;19.50;;;;;;;-4.07;78.81;100003.65;2296452;77;21638;-84
2021/03/06 04:58:52;;;;;;;34.25;19.30;;;;;;;-4.02;78.62;100001.77;2283696;76;21176;-85
2021/03/06 05:01:53;;;;;;;35.73;20.62;;;;;;;-3.99;78.60;99998.25;2303859;76;21139;-84
2021/03/06 05:04:57;;;;;;;29.25;17.48;;;;;;;-4.04;78.49;99999.69;2275269;76;21287;-84
2021/03/06 05:07:58;;;;;;;33.20;16.93;;;;;;;-4.02;78.49;100003.50;2262388;76;21127;-83
2021/03/06 05:11:00;;;;;;;35.73;17.70;;;;;;;-4.09;78.39;100015.67;2298726;77;21317;-84
2021/03/06 05:14:02;;;;;;;26.35;15.80;;;;;;;-4.16;78.37;100008.27;2273053;77;21302;-86
2021/03/06 05:17:04;;;;;;;31.40;17.87;;;;;;;-4.12;78.64;100011.92;2298713;77;21348;-86
2021/03/06 05:20:05;;;;;;;34.92;17.37;;;;;;;-4.05;78.58;100013.37;2271678;77;21262;-84
2021/03/06 05:23:07;;;;;;;32.80;17.30;;;;;;;-3.95;78.58;100011.31;2303433;77;21139;-83
2021/03/06 05:26:09;;;;;;;35.30;19.15;;;;;;;-3.89;78.52;100008.53;2286265;77;21309;-84
2021/03/06 05:29:11;;;;;;;36.00;19.32;;;;;;;-3.85;78.35;100013.08;2279911;77;21304;-83
2021/03/06 05:32:12;;;;;;;39.13;19.73;;;;;;;-3.83;78.35;100015.16;2265150;77;21186;-83
2021/03/06 05:35:14;;;;;;;38.42;19.15;;;;;;;-3.73;78.36;100011.36;2279054;77;21281;-86
2021/03/06 05:38:15;;;;;;;36.38;21.35;;;;;;;-3.62;78.11;100010.95;2304508;77;21159;-85
2021/03/06 05:41:17;;;;;;;39.48;20.65;;;;;;;-3.61;78.15;100007.05;2310493;76;21729;-85
2021/03/06 05:44:19;;;;;;;48.35;24.90;;;;;;;-3.58;77.99;100016.33;2281190;77;21300;-85
2021/03/06 05:47:20;;;;;;;40.48;21.30;;;;;;;-3.57;78.08;100019.27;2302468;77;21745;-85
2021/03/06 05:50:22;;;;;;;57.40;22.58;;;;;;;-3.52;78.03;100023.33;2309026;77;21190;-86
2021/03/06 05:53:23;;;;;;;55.10;23.50;;;;;;;-3.47;77.96;100034.25;2291261;77;21729;-85
2021/03/06 05:56:25;;;;;;;44.10;21.42;;;;;;;-3.41;77.93;100041.28;2300991;77;21709;-86
2021/03/06 05:59:27;;;;;;;34.58;17.42;;;;;;;-3.39;77.94;100035.20;2283452;77;21313;-86
2021/03/06 06:02:28;;;;;;;44.20;19.62;;;;;;;-3.25;78.08;100043.64;2304071;76;21765;-84
2021/03/06 06:05:30;;;;;;;43.85;19.40;;;;;;;-3.13;77.96;100040.59;2312569;77;21345;-85
2021/03/06 06:08:33;;;;;;;37.60;18.60;;;;;;;-3.08;77.91;100047.66;2306289;77;21274;-85
2021/03/06 06:11:34;;;;;;;35.38;18.02;;;;;;;-2.97;77.91;100051.06;2301865;77;21277;-87
2021/03/06 06:14:36;;;;;;;38.48;20.27;;;;;;;-2.84;77.81;100056.07;2287176;77;21485;-84
2021/03/06 06:17:38;;;;;;;27.67;16.15;;;;;;;-2.69;78.00;100059.30;2298551;77;21285;-89
2021/03/06 06:20:39;;;;;;;32.53;18.98;;;;;;;-2.53;77.60;100070.21;2287889;77;21221;-83
2021/03/06 06:23:41;;;;;;;35.03;17.92;;;;;;;-2.45;77.53;100070.28;2299484;77;21728;-83
2021/03/06 06:26:43;;;;;;;36.45;20.40;;;;;;;-2.28;77.53;100076.44;2292210;77;21135;-86
2021/03/06 06:29:45;;;;;;;36.40;19.07;;;;;;;-2.25;77.30;100078.86;2293103;77;21278;-83
2021/03/06 06:32:47;;;;;;;36.90;19.48;;;;;;;-2.15;77.20;100081.41;2296824;77;21301;-83
2021/03/06 06:35:49;;;;;;;37.38;21.65;;;;;;;-2.04;77.21;100083.89;2285155;77;21824;-82
2021/03/06 06:38:50;;;;;;;42.58;20.92;;;;;;;-1.93;77.00;100092.40;2304528;77;21596;-83
2021/03/06 06:41:52;;;;;;;36.58;21.40;;;;;;;-1.82;77.14;100096.64;2279951;77;21329;-83
2021/03/06 06:44:53;;;;;;;41.70;20.60;;;;;;;-1.79;76.84;100102.08;2266336;77;21265;-81
2021/03/06 06:47:55;;;;;;;35.52;18.98;;;;;;;-1.72;76.90;100114.59;2287894;77;21282;-85
2021/03/06 06:50:57;;;;;;;28.98;18.55;;;;;;;-1.58;76.82;100119.09;2263238;77;21581;-81
2021/03/06 06:53:59;;;;;;;35.90;20.65;;;;;;;-1.50;76.78;100118.30;2290350;77;21151;-82
2021/03/06 06:57:00;;;;;;;38.67;22.15;;;;;;;-1.46;76.66;100133.14;2265705;77;21824;-83
2021/03/06 07:00:02;;;;;;;43.38;21.25;;;;;;;-1.38;76.71;100122.05;2288806;77;21187;-84
2021/03/06 07:03:04;;;;;;;31.60;19.32;;;;;;;-1.26;76.74;100127.09;2288000;77;21737;-86
2021/03/06 07:06:06;;;;;;;36.28;19.05;;;;;;;-1.15;76.52;100128.26;2292621;77;21321;-84
2021/03/06 07:09:08;;;;;;;30.55;17.30;;;;;;;-1.02;76.51;100136.22;2306242;77;21300;-86
2021/03/06 07:12:09;;;;;;;31.20;18.30;;;;;;;-0.90;76.33;100134.38;2266432;77;21309;-81
2021/03/06 07:15:11;;;;;;;40.90;20.48;;;;;;;-0.77;76.21;100136.36;2289014;77;21297;-82
2021/03/06 07:18:13;;;;;;;40.10;18.67;;;;;;;-0.70;76.10;100131.31;2276794;77;21159;-84
2021/03/06 07:21:15;;;;;;;34.40;19.20;;;;;;;-0.56;75.80;100135.31;2301871;76;21714;-84
2021/03/06 07:24:17;;;;;;;32.63;17.52;;;;;;;-0.47;75.96;100129.72;2289052;77;21369;-84
2021/03/06 07:27:18;;;;;;;32.58;18.57;;;;;;;-0.36;75.26;100133.08;2290744;76;21317;-87
2021/03/06 07:30:20;;;;;;;31.93;19.20;;;;;;;-0.29;75.46;100135.24;2302016;77;21313;-85
2021/03/06 07:33:22;;;;;;;35.73;17.07;;;;;;;-0.18;75.45;100137.30;2270376;77;21128;-84
2021/03/06 07:36:23;;;;;;;35.52;18.45;;;;;;;-0.10;75.30;100135.61;2296112;77;21139;-84
2021/03/06 07:39:25;;;;;;;34.53;19.27;;;;;;;-0.01;75.09;100142.41;2288652;76;21171;-85
2021/03/06 07:42:26;;;;;;;38.33;19.65;;;;;;;0.02;74.90;100144.48;2301334;77;21310;-87
2021/03/06 07:45:28;;;;;;;34.00;18.12;;;;;;;0.06;74.80;100145.97;2305420;77;21626;-85
2021/03/06 07:48:30;;;;;;;32.20;18.98;;;;;;;0.11;73.61;100136.28;2299943;77;21631;-84
2021/03/06 07:51:31;;;;;;;30.10;17.75;;;;;;;0.16;74.32;100140.72;2306624;77;21146;-83
2021/03/06 07:54:33;;;;;;;26.85;16.27;;;;;;;0.19;74.27;100133.69;2289177;77;21115;-84
2021/03/06 07:57:35;;;;;;;30.32;16.30;;;;;;;0.24;74.21;100130.40;2288827;77;21337;-83
2021/03/06 08:00:36;;;;;;;25.57;16.65;;;;;;;0.26;73.90;100123.88;2281282;77;21273;-83
2021/03/06 08:03:38;;;;;;;28.85;15.75;;;;;;;0.32;74.04;100126.60;2284210;76;21186;-83
2021/03/06 08:06:39;;;;;;;30.65;17.73;;;;;;;0.34;73.66;100125.59;2274642;77;21259;-87
2021/03/06 08:09:41;;;;;;;27.02;17.23;;;;;;;0.40;74.00;100130.44;2268194;77;21159;-87
2021/03/06 08:12:42;;;;;;;26.10;15.35;;;;;;;0.50;74.11;100134.66;2287207;77;21338;-85
2021/03/06 08:15:44;;;;;;;25.92;14.60;;;;;;;0.59;73.75;100135.45;2279969;77;21313;-86
2021/03/06 08:18:45;;;;;;;32.05;16.15;;;;;;;0.60;73.65;100134.53;2276361;77;21717;-88
2021/03/06 08:21:47;;;;;;;27.22;15.20;;;;;;;0.65;73.53;100129.98;2290463;77;21167;-85
2021/03/06 08:24:49;;;;;;;24.98;14.58;;;;;;;0.70;73.21;100134.88;2283794;77;21146;-85
2021/03/06 08:27:50;;;;;;;26.90;16.90;;;;;;;0.71;72.56;100133.50;2274621;77;21177;-85
2021/03/06 08:30:52;;;;;;;28.42;15.38;;;;;;;0.75;72.58;100134.18;2286652;77;21306;-85
2021/03/06 08:33:53;;;;;;;28.42;14.98;;;;;;;0.79;73.05;100128.76;2280966;77;21280;-84
2021/03/06 08:36:55;;;;;;;25.72;15.28;;;;;;;0.84;73.01;100128.52;2289019;77;21289;-85
2021/03/06 08:39:57;;;;;;;23.18;14.95;;;;;;;0.91;72.94;100125.13;2294553;77;21346;-84
2021/03/06 08:42:59;;;;;;;21.68;14.18;;;;;;;0.99;73.02;100123.80;2294457;77;21131;-85
2021/03/06 08:46:00;;;;;;;23.40;13.53;;;;;;;1.12;72.78;100131.71;2281849;77;21206;-84
2021/03/06 08:49:02;;;;;;;19.20;12.25;;;;;;;1.23;72.21;100130.64;2293906;77;21760;-83
2021/03/06 08:52:03;;;;;;;18.87;10.75;;;;;;;1.30;71.82;100133.72;2289831;77;21143;-83
2021/03/06 08:55:05;;;;;;;22.65;11.73;;;;;;;1.27;71.14;100130.83;2282784;77;21134;-84
2021/03/06 08:58:06;;;;;;;20.60;10.90;;;;;;;1.28;70.82;100130.38;2305634;76;21189;-88
2021/03/06 09:01:08;;;;;;;20.40;10.38;;;;;;;1.32;71.05;100124.97;2319925;76;21194;-90
2021/03/06 09:04:09;;;;;;;16.32;9.48;;;;;;;1.41;70.67;100137.81;2319099;76;21273;-83
2021/03/06 09:07:11;;;;;;;16.23;8.83;;;;;;;1.43;69.15;100132.09;2320061;76;21131;-83
2021/03/06 09:10:13;;;;;;;15.93;9.33;;;;;;;1.49;70.27;100130.93;2298760;76;21331;-83
2021/03/06 09:13:15;;;;;;;14.45;7.92;;;;;;;1.57;69.44;100139.07;2318214;76;21333;-83
2021/03/06 09:16:17;;;;;;;18.67;8.50;;;;;;;1.61;69.24;100130.22;2312999;76;21716;-83
2021/03/06 09:19:18;;;;;;;14.38;8.35;;;;;;;1.65;69.31;100131.72;2302133;76;21329;-83
2021/03/06 09:22:20;;;;;;;18.50;9.35;;;;;;;1.65;68.52;100126.09;2312442;76;21313;-83
2021/03/06 09:25:21;;;;;;;16.87;9.83;;;;;;;1.64;67.97;100119.24;2316577;76;21388;-82
2021/03/06 09:28:23;;;;;;;14.05;8.03;;;;;;;1.71;68.22;100121.84;2298684;76;21244;-81
2021/03/06 09:31:26;;;;;;;13.38;8.75;;;;;;;1.83;67.80;100131.09;2296702;77;21712;-82
2021/03/06 09:34:28;;;;;;;13.83;8.75;;;;;;;1.91;67.77;100127.13;2287296;77;21605;-83
2021/03/06 09:37:29;;;;;;;16.05;9.30;;;;;;;1.93;67.01;100127.90;2294665;76;21626;-82
2021/03/06 09:40:31;;;;;;;13.30;8.40;;;;;;;1.97;67.06;100143.58;2272704;77;21316;-81
2021/03/06 09:43:32;;;;;;;18.05;9.90;;;;;;;2.11;67.67;100144.53;2278024;77;21371;-84
2021/03/06 09:46:33;;;;;;;13.68;8.33;;;;;;;2.26;67.74;100148.77;2275959;77;21270;-81
2021/03/06 09:49:35;;;;;;;16.25;8.93;;;;;;;2.38;66.29;100143.31;2272635;77;21268;-81
2021/03/06 09:52:36;;;;;;;15.45;9.15;;;;;;;2.50;67.43;100147.30;2262713;77;21158;-80
2021/03/06 09:55:38;;;;;;;19.32;8.23;;;;;;;2.73;67.17;100144.58;2291975;77;21188;-81
2021/03/06 09:58:39;;;;;;;10.90;7.08;;;;;;;2.98;65.84;100145.17;2299015;76;21269;-82
2021/03/06 10:01:41;;;;;;;13.40;8.23;;;;;;;3.26;64.42;100139.08;2298864;77;21289;-81
2021/03/06 10:04:42;;;;;;;12.28;7.25;;;;;;;3.48;63.80;100139.83;2280188;77;21304;-81
2021/03/06 10:07:44;;;;;;;13.85;7.95;;;;;;;3.64;62.87;100135.29;2292605;77;21155;-81
2021/03/06 10:10:45;;;;;;;13.43;7.83;;;;;;;3.87;63.94;100129.06;2290737;77;21743;-81
2021/03/06 10:13:47;;;;;;;11.97;7.37;;;;;;;4.05;62.69;100130.42;2286338;77;21260;-80
2021/03/06 10:16:49;;;;;;;9.85;5.62;;;;;;;4.24;62.56;100128.70;2278529;77;21311;-81
2021/03/06 10:19:50;;;;;;;15.32;6.90;;;;;;;4.38;59.30;100140.24;2277364;77;21605;-81
2021/03/06 10:22:52;;;;;;;11.28;5.70;;;;;;;4.39;56.00;100132.85;2269782;77;21538;-81
2021/03/06 10:25:53;;;;;;;9.55;6.03;;;;;;;4.34;58.35;100136.22;2283615;77;21313;-81
2021/03/06 10:28:55;;;;;;;9.38;6.10;;;;;;;4.35;58.73;100122.78;2287344;76;21285;-81
2021/03/06 10:31:56;;;;;;;20.35;6.55;;;;;;;4.40;55.21;100126.73;2287849;77;21587;-82
2021/03/06 10:34:58;;;;;;;7.87;6.03;;;;;;;4.33;55.11;100116.88;2304449;76;21313;-82
2021/03/06 10:37:59;;;;;;;6.87;5.30;;;;;;;4.32;56.64;100115.22;2295924;77;21273;-80
2021/03/06 10:41:01;;;;;;;8.98;6.00;;;;;;;4.22;53.60;100117.62;2280990;76;21657;-81
2021/03/06 10:44:02;;;;;;;6.78;5.90;;;;;;;4.15;56.23;100107.30;2298137;77;21368;-85
2021/03/06 10:47:04;;;;;;;13.85;6.37;;;;;;;4.18;55.44;100103.19;2297476;76;21290;-80
2021/03/06 10:50:05;;;;;;;10.88;5.87;;;;;;;4.21;54.10;100109.02;2300850;77;21554;-80
2021/03/06 10:53:07;;;;;;;9.98;6.58;;;;;;;4.12;54.21;100112.70;2317624;77;21320;-80
2021/03/06 10:56:08;;;;;;;9.88;5.58;;;;;;;3.94;55.53;100113.48;2266908;77;21130;-81
2021/03/06 10:59:09;;;;;;;16.25;8.40;;;;;;;3.83;55.85;100100.39;2220427;79;21295;-83
2021/03/06 11:02:11;;;;;;;11.95;7.40;;;;;;;3.74;55.39;100101.83;2183992;80;21293;-83
2021/03/06 11:05:12;;;;;;;11.35;8.60;;;;;;;3.69;53.99;100103.91;2191052;80;21342;-83
2021/03/06 11:08:14;;;;;;;12.78;7.28;;;;;;;3.65;55.10;100090.31;2188473;80;21542;-79
2021/03/06 11:11:16;;;;;;;11.93;5.78;;;;;;;3.76;55.40;100088.33;2216907;79;21294;-82
2021/03/06 11:14:17;;;;;;;9.03;5.72;;;;;;;3.92;53.67;100068.20;2264114;77;21888;-82
2021/03/06 11:17:18;;;;;;;16.62;6.75;;;;;;;4.02;51.07;100073.59;2266694;77;21357;-83
2021/03/06 11:20:20;;;;;;;9.25;5.83;;;;;;;4.11;53.15;100072.95;2273578;78;21589;-83
2021/03/06 11:23:21;;;;;;;10.05;5.70;;;;;;;4.29;51.92;100086.42;2267023;78;21210;-83
2021/03/06 11:26:25;;;;;;;7.37;6.05;;;;;;;4.38;51.49;100081.89;2269380;77;21178;-83
2021/03/06 11:29:27;;;;;;;8.85;5.50;;;;;;;4.40;51.79;100077.45;2271109;77;21293;-82
2021/03/06 11:32:28;;;;;;;8.85;6.30;;;;;;;4.39;52.47;100068.45;2270895;76;21320;-82
2021/03/06 11:35:30;;;;;;;12.80;7.20;;;;;;;4.46;53.40;100065.80;2272378;77;21795;-82
2021/03/06 11:38:31;;;;;;;6.92;4.80;;;;;;;4.64;53.91;100066.27;2268693;77;21709;-83
2021/03/06 11:41:33;;;;;;;7.37;4.00;;;;;;;4.93;51.49;100054.63;2268555;77;21749;-83
2021/03/06 11:44:35;;;;;;;5.58;3.70;;;;;;;5.16;50.75;100043.05;2270907;77;21340;-82
2021/03/06 11:47:37;;;;;;;4.85;3.37;;;;;;;5.34;48.56;100046.89;2272067;77;21332;-82
2021/03/06 11:50:38;;;;;;;4.10;2.87;;;;;;;5.51;48.84;100042.56;2268138;77;21630;-83
2021/03/06 11:53:40;;;;;;;4.00;3.58;;;;;;;5.64;46.58;100032.89;2268234;77;21159;-82
2021/03/06 11:56:41;;;;;;;13.08;4.15;;;;;;;5.74;48.11;100038.69;2271888;77;21285;-83
2021/03/06 11:59:43;;;;;;;5.10;2.42;;;;;;;5.81;47.39;100040.72;2270243;77;21174;-83
2021/03/06 12:02:44;;;;;;;2.80;2.08;;;;;;;5.87;45.42;100033.76;2269545;77;21317;-83
2021/03/06 12:05:46;;;;;;;3.25;2.35;;;;;;;5.80;43.86;100033.04;2270614;77;21288;-83
2021/03/06 12:08:47;;;;;;;6.20;2.30;;;;;;;5.79;44.39;100028.31;2269858;77;21154;-83
2021/03/06 12:11:49;;;;;;;2.98;2.60;;;;;;;5.76;43.35;100017.30;2268515;77;21709;-83
2021/03/06 12:14:50;;;;;;;3.25;2.27;;;;;;;5.79;44.27;100013.19;2270940;77;21324;-81
2021/03/06 12:17:52;;;;;;;4.37;3.37;;;;;;;5.75;43.52;100009.98;2269934;77;22285;-82
2021/03/06 12:20:53;;;;;;;3.35;2.45;;;;;;;5.61;43.31;100012.34;2270965;77;21277;-82
2021/03/06 12:23:55;;;;;;;4.25;2.37;;;;;;;5.51;43.59;100017.06;2261362;77;21309;-82
2021/03/06 12:26:57;;;;;;;5.95;2.47;;;;;;;5.52;43.72;100005.25;2271697;78;21202;-83
2021/03/06 12:29:58;;;;;;;2.25;2.05;;;;;;;5.60;43.31;100007.27;2272334;77;21178;-83
2021/03/06 12:33:00;;;;;;;5.37;2.62;;;;;;;5.71;42.26;100003.37;2266369;77;22335;-82
2021/03/06 12:36:01;;;;;;;4.92;3.25;;;;;;;5.71;42.41;100001.61;2269580;77;21297;-86
2021/03/06 12:39:03;;;;;;;1.90;1.77;;;;;;;5.72;40.77;99988.13;2270228;77;21301;-82
2021/03/06 12:42:05;;;;;;;8.30;3.47;;;;;;;5.75;40.42;99986.59;2272545;77;21316;-80
2021/03/06 12:45:07;;;;;;;9.95;3.55;;;;;;;5.68;37.68;99987.55;2272049;77;21748;-82
2021/03/06 12:48:08;;;;;;;12.20;4.85;;;;;;;5.66;40.08;99992.49;2269063;77;21768;-81
2021/03/06 12:51:10;;;;;;;20.30;5.03;;;;;;;5.64;37.87;99988.72;2269950;77;21292;-83
2021/03/06 12:54:12;;;;;;;4.80;3.40;;;;;;;5.61;39.02;99980.34;2269752;77;21321;-81
2021/03/06 12:57:13;;;;;;;3.22;2.75;;;;;;;5.68;40.39;99983.66;2168382;82;21302;-83
2021/03/06 13:00:15;;;;;;;4.58;2.75;;;;;;;5.76;40.44;99974.42;2270792;77;21143;-82
2021/03/06 13:03:17;;;;;;;6.53;3.20;;;;;;;5.74;37.72;99979.74;2270032;77;21174;-82
2021/03/06 13:06:18;;;;;;;4.60;2.85;;;;;;;5.69;39.61;99976.69;2270803;77;21750;-83
2021/03/06 13:09:20;;;;;;;3.30;3.00;;;;;;;5.63;40.01;99975.84;2269364;77;21697;-83
2021/03/06 13:12:22;;;;;;;7.10;2.75;;;;;;;5.55;39.81;99974.30;2267009;77;21170;-83
2021/03/06 13:15:24;;;;;;;5.15;3.55;;;;;;;5.45;38.98;99969.45;2270888;77;21325;-82
2021/03/06 13:18:25;;;;;;;5.50;3.17;;;;;;;5.27;39.88;99969.06;2269439;77;21277;-82
2021/03/06 13:21:27;;;;;;;7.70;4.42;;;;;;;5.19;40.62;99971.41;2268693;77;21273;-83
2021/03/06 13:24:29;;;;;;;13.05;5.22;;;;;;;5.14;39.78;99970.47;2233537;77;21776;-83
2021/03/06 13:27:30;;;;;;;5.20;3.95;;;;;;;5.08;40.01;99973.51;2272955;77;21617;-82
2021/03/06 13:30:32;;;;;;;8.90;4.60;;;;;;;4.99;39.94;99969.00;2270148;77;21284;-82
2021/03/06 13:33:33;;;;;;;6.58;4.53;;;;;;;4.93;39.56;99974.16;2271284;77;21143;-82
2021/03/06 13:36:35;;;;;;;3.55;2.95;;;;;;;4.87;40.54;99967.31;2269117;78;21733;-82
2021/03/06 13:39:37;;;;;;;5.22;3.45;;;;;;;4.84;40.87;99973.06;2276636;77;21364;-82
2021/03/06 13:42:38;;;;;;;5.22;4.28;;;;;;;4.83;41.10;99969.29;2269850;77;21761;-82
2021/03/06 13:45:40;;;;;;;6.35;3.58;;;;;;;4.83;41.39;99973.18;2267803;77;21678;-82
2021/03/06 13:48:42;;;;;;;4.35;3.77;;;;;;;4.83;41.16;99977.08;2270535;77;21801;-82
2021/03/06 13:51:43;;;;;;;5.35;3.58;;;;;;;4.80;39.76;99969.05;2269387;77;21292;-83
2021/03/06 13:54:45;;;;;;;7.87;3.65;;;;;;;4.77;39.85;99952.42;2268580;77;21297;-82
2021/03/06 13:57:47;;;;;;;6.37;3.55;;;;;;;4.78;39.28;99950.65;2267159;77;21337;-82
2021/03/06 14:00:48;;;;;;;8.45;3.33;;;;;;;4.90;39.51;99955.41;2270683;77;21206;-83